createdAt,value
2018-12-23T00:00:25.926Z,8.90
2018-12-23T00:02:53.471Z,8.90
2018-12-23T00:05:20.994Z,9.00
2018-12-23T00:07:48.536Z,8.90
2018-12-23T00:10:16.056Z,8.90
2018-12-23T00:12:43.599Z,9.00
2018-12-23T00:15:11.123Z,9.00
2018-12-23T00:17:38.663Z,9.10
2018-12-23T00:20:08.648Z,9.10
2018-12-23T00:22:36.198Z,9.10
2018-12-23T00:25:04.212Z,9.10
2018-12-23T00:27:31.780Z,9.20
2018-12-23T00:29:59.300Z,9.30
2018-12-23T00:32:26.860Z,9.20
2018-12-23T00:34:54.388Z,9.10
2018-12-23T00:37:21.935Z,9.20
2018-12-23T00:39:49.479Z,9.10
2018-12-23T00:42:16.995Z,9.10
2018-12-23T00:44:44.540Z,9.10
2018-12-23T00:47:12.054Z,9.10
2018-12-23T00:49:39.601Z,9.10
2018-12-23T00:52:07.149Z,9.00
2018-12-23T00:54:34.872Z,9.00
2018-12-23T00:57:02.392Z,9.10
2018-12-23T00:59:30.015Z,9.10
2018-12-23T01:01:57.538Z,9.10
2018-12-23T01:04:25.085Z,9.10
2018-12-23T01:06:52.642Z,9.10
2018-12-23T01:09:20.182Z,9.00
2018-12-23T01:11:47.701Z,9.10
2018-12-23T01:14:15.247Z,9.10
2018-12-23T01:16:42.772Z,8.90
2018-12-23T01:19:10.320Z,8.90
2018-12-23T01:21:37.836Z,8.80
2018-12-23T01:24:06.387Z,8.80
2018-12-23T01:26:33.901Z,8.80
2018-12-23T01:29:01.451Z,8.90
2018-12-23T01:31:28.966Z,8.80
2018-12-23T01:33:56.513Z,8.80
2018-12-23T01:36:24.032Z,8.90
2018-12-23T01:38:51.579Z,8.80
2018-12-23T01:41:19.106Z,8.80
2018-12-23T01:43:46.655Z,8.90
2018-12-23T01:46:14.176Z,8.80
2018-12-23T01:48:41.719Z,8.90
2018-12-23T01:51:09.239Z,8.90
2018-12-23T01:53:36.783Z,8.90
2018-12-23T01:56:04.379Z,8.90
2018-12-23T01:58:31.922Z,8.90
2018-12-23T02:00:59.440Z,8.90
2018-12-23T02:03:26.981Z,9.00
2018-12-23T02:05:54.499Z,8.90
2018-12-23T02:08:22.047Z,8.90
2018-12-23T02:10:49.567Z,8.90
2018-12-23T02:13:17.118Z,8.80
2018-12-23T02:15:44.646Z,8.80
2018-12-23T02:18:12.191Z,8.70
2018-12-23T02:20:39.706Z,8.80
2018-12-23T02:23:07.229Z,8.80
2018-12-23T02:25:34.767Z,8.80
2018-12-23T02:28:02.295Z,8.90
2018-12-23T02:30:29.846Z,9.00
2018-12-23T02:32:57.366Z,8.90
2018-12-23T02:35:24.909Z,9.00
2018-12-23T02:37:52.437Z,9.00
2018-12-23T02:40:20.053Z,9.00
2018-12-23T02:42:47.651Z,9.10
2018-12-23T02:45:15.196Z,9.10
2018-12-23T02:47:42.711Z,9.00
2018-12-23T02:50:10.260Z,9.00
2018-12-23T02:52:37.779Z,9.00
2018-12-23T02:55:05.582Z,9.00
2018-12-23T02:57:33.099Z,9.10
2018-12-23T03:00:00.864Z,9.10
2018-12-23T03:02:28.558Z,9.00
2018-12-23T03:04:56.101Z,9.00
2018-12-23T03:07:23.628Z,8.90
2018-12-23T03:09:51.176Z,9.00
2018-12-23T03:12:18.694Z,9.00
2018-12-23T03:14:46.239Z,8.90
2018-12-23T03:17:13.753Z,8.90
2018-12-23T03:19:41.308Z,8.90
2018-12-23T03:22:08.830Z,8.90
2018-12-23T03:24:36.379Z,8.90
2018-12-23T03:27:03.900Z,8.90
2018-12-23T03:29:31.451Z,8.80
2018-12-23T03:31:59.077Z,8.80
2018-12-23T03:34:26.731Z,8.80
2018-12-23T03:36:54.250Z,8.80
2018-12-23T03:39:21.806Z,8.80
2018-12-23T03:41:49.573Z,8.80
2018-12-23T03:44:17.119Z,8.80
2018-12-23T03:46:44.635Z,8.80
2018-12-23T03:49:12.178Z,8.90
2018-12-23T03:51:39.699Z,8.90
2018-12-23T03:54:07.239Z,8.90
2018-12-23T03:56:34.765Z,8.90
2018-12-23T03:59:02.313Z,8.80
2018-12-23T04:01:29.844Z,8.70
2018-12-23T04:03:57.394Z,8.80
2018-12-23T04:06:25.164Z,8.70
2018-12-23T04:08:52.779Z,8.90
2018-12-23T04:11:20.331Z,8.90
2018-12-23T04:13:47.853Z,9.00
2018-12-23T04:16:15.414Z,8.90
2018-12-23T04:18:42.931Z,9.00
2018-12-23T04:21:10.472Z,8.90
2018-12-23T04:23:38.041Z,9.10
2018-12-23T04:26:05.654Z,9.00
2018-12-23T04:28:33.167Z,9.00
2018-12-23T04:31:00.791Z,9.00
2018-12-23T04:33:28.316Z,9.00
2018-12-23T04:35:55.859Z,9.00
2018-12-23T04:38:23.379Z,8.90
2018-12-23T04:40:51.050Z,9.00
2018-12-23T04:43:18.767Z,9.00
2018-12-23T04:45:46.312Z,9.00
2018-12-23T04:48:13.839Z,9.00
2018-12-23T04:50:41.385Z,9.10
2018-12-23T04:53:08.904Z,9.00
2018-12-23T04:55:36.455Z,9.10
2018-12-23T04:58:03.977Z,9.10
2018-12-23T05:00:31.522Z,9.00
2018-12-23T05:02:59.044Z,9.00
2018-12-23T05:05:26.587Z,9.00
2018-12-23T05:07:54.114Z,9.00
2018-12-23T05:10:21.779Z,9.10
2018-12-23T05:12:49.299Z,9.10
2018-12-23T05:15:16.845Z,9.00
2018-12-23T05:17:44.374Z,9.00
2018-12-23T05:20:11.924Z,9.00
2018-12-23T05:22:39.443Z,9.10
2018-12-23T05:25:06.999Z,9.10
2018-12-23T05:27:34.602Z,9.10
2018-12-23T05:30:02.206Z,9.00
2018-12-23T05:32:29.731Z,9.10
2018-12-23T05:34:57.284Z,9.10
2018-12-23T05:37:24.806Z,9.00
2018-12-23T05:39:52.326Z,9.00
2018-12-23T05:42:19.871Z,9.00
2018-12-23T05:44:47.392Z,9.00
2018-12-23T05:47:14.941Z,9.10
2018-12-23T05:49:42.450Z,9.10
2018-12-23T05:52:09.999Z,9.00
2018-12-23T05:54:37.512Z,9.00
2018-12-23T05:57:05.055Z,8.90
2018-12-23T05:59:32.593Z,8.90
2018-12-23T06:02:00.220Z,8.80
2018-12-23T06:04:27.738Z,8.80
2018-12-23T06:07:00.968Z,8.90
2018-12-23T06:09:24.826Z,8.90
2018-12-23T06:11:52.373Z,8.90
2018-12-23T06:14:19.895Z,8.90
2018-12-23T06:16:47.439Z,9.00
2018-12-23T06:19:14.962Z,9.10
2018-12-23T06:21:42.507Z,9.00
2018-12-23T06:24:10.080Z,8.90
2018-12-23T06:26:37.692Z,9.00
2018-12-23T06:29:05.213Z,8.90
2018-12-23T06:31:32.760Z,8.90
2018-12-23T06:34:00.283Z,8.90
2018-12-23T06:36:27.836Z,9.00
2018-12-23T06:38:55.367Z,9.00
2018-12-23T06:41:22.915Z,9.00
2018-12-23T06:43:50.431Z,9.00
2018-12-23T06:46:17.973Z,9.10
2018-12-23T06:48:45.502Z,9.10
2018-12-23T06:51:13.055Z,9.00
2018-12-23T06:53:40.571Z,9.00
2018-12-23T06:56:08.115Z,9.10
2018-12-23T06:58:35.628Z,9.10
2018-12-23T07:01:03.176Z,9.10
2018-12-23T07:03:30.735Z,9.00
2018-12-23T07:05:58.255Z,8.80
2018-12-23T07:08:25.806Z,8.90
2018-12-23T07:10:53.324Z,8.90
2018-12-23T07:13:20.872Z,8.90
2018-12-23T07:15:48.391Z,9.00
2018-12-23T07:18:15.946Z,9.10
2018-12-23T07:20:43.463Z,9.10
2018-12-23T07:23:11.012Z,9.00
2018-12-23T07:25:38.596Z,9.00
2018-12-23T07:28:06.267Z,8.90
2018-12-23T07:30:33.791Z,9.10
2018-12-23T07:33:01.339Z,9.10
2018-12-23T07:35:28.874Z,9.10
2018-12-23T07:37:56.426Z,9.10
2018-12-23T07:40:23.947Z,9.10
2018-12-23T07:42:51.491Z,9.10
2018-12-23T07:45:19.011Z,9.20
2018-12-23T07:47:46.548Z,9.20
2018-12-23T07:50:14.067Z,9.10
2018-12-23T07:52:41.615Z,9.10
2018-12-23T07:55:09.131Z,9.10
2018-12-23T07:57:36.671Z,9.10
2018-12-23T08:00:04.648Z,9.10
2018-12-23T08:02:32.189Z,9.00
2018-12-23T08:04:59.708Z,9.10
2018-12-23T08:07:35.951Z,9.10
2018-12-23T08:09:56.806Z,9.00
2018-12-23T08:12:24.322Z,9.00
2018-12-23T08:14:51.868Z,9.10
2018-12-23T08:17:19.388Z,9.10
2018-12-23T08:19:46.931Z,9.20
2018-12-23T08:22:14.451Z,9.20
2018-12-23T08:24:41.992Z,9.20
2018-12-23T08:27:09.512Z,9.20
2018-12-23T08:29:37.075Z,9.20
2018-12-23T08:32:04.617Z,9.20
2018-12-23T08:34:32.164Z,9.30
2018-12-23T08:36:59.684Z,9.20
2018-12-23T08:39:27.235Z,9.30
2018-12-23T08:41:54.755Z,9.30
2018-12-23T08:44:22.299Z,9.30
2018-12-23T08:46:49.812Z,9.40
2018-12-23T08:49:17.364Z,9.50
2018-12-23T08:51:45.920Z,9.50
2018-12-23T08:54:13.729Z,9.40
2018-12-23T08:56:41.252Z,9.40
2018-12-23T08:59:08.811Z,9.40
2018-12-23T09:01:36.327Z,9.40
2018-12-23T09:04:04.024Z,9.40
2018-12-23T09:06:31.555Z,9.50
2018-12-23T09:08:59.192Z,9.50
2018-12-23T09:11:26.789Z,9.50
2018-12-23T09:13:54.367Z,9.60
2018-12-23T09:16:21.920Z,9.50
2018-12-23T09:18:49.534Z,9.60
2018-12-23T09:21:17.368Z,9.60
2018-12-23T09:23:44.887Z,9.50
2018-12-23T09:26:12.435Z,9.40
2018-12-23T09:28:39.959Z,9.50
2018-12-23T09:31:07.514Z,9.50
2018-12-23T09:33:35.031Z,9.50
2018-12-23T09:36:02.578Z,9.50
2018-12-23T09:38:30.604Z,9.50
2018-12-23T09:40:58.151Z,9.60
2018-12-23T09:43:25.663Z,9.60
2018-12-23T09:45:53.205Z,9.60
2018-12-23T09:48:20.727Z,9.60
2018-12-23T09:50:48.274Z,9.80
2018-12-23T09:53:15.850Z,9.80
2018-12-23T09:55:43.390Z,9.90
2018-12-23T09:58:10.904Z,9.70
2018-12-23T10:00:38.459Z,9.70
2018-12-23T10:03:05.983Z,9.70
2018-12-23T10:05:33.531Z,9.70
2018-12-23T10:08:01.056Z,9.70
2018-12-23T10:10:28.820Z,9.70
2018-12-23T10:12:56.451Z,9.70
2018-12-23T10:15:23.999Z,9.80
2018-12-23T10:17:51.544Z,9.70
2018-12-23T10:20:19.062Z,9.80
2018-12-23T10:22:46.608Z,9.80
2018-12-23T10:25:14.132Z,9.90
2018-12-23T10:27:41.683Z,9.90
2018-12-23T10:30:09.216Z,9.90
2018-12-23T10:32:36.771Z,10.00
2018-12-23T10:35:04.468Z,10.00
2018-12-23T10:37:32.020Z,10.00
2018-12-23T10:39:59.553Z,10.10
2018-12-23T10:42:27.110Z,10.10
2018-12-23T10:44:54.719Z,10.00
2018-12-23T10:47:22.269Z,10.10
2018-12-23T10:49:49.790Z,10.00
2018-12-23T10:52:17.335Z,10.00
2018-12-23T10:54:44.865Z,10.00
2018-12-23T10:57:12.424Z,10.00
2018-12-23T10:59:39.947Z,10.10
2018-12-23T11:02:13.667Z,10.00
2018-12-23T11:04:37.047Z,10.00
2018-12-23T11:07:04.631Z,9.90
2018-12-23T11:09:32.157Z,10.00
2018-12-23T11:11:59.676Z,9.90
2018-12-23T11:14:27.220Z,9.80
2018-12-23T11:17:41.625Z,9.80
2018-12-23T11:23:38.358Z,9.80
2018-12-23T11:28:55.808Z,9.70
2018-12-23T11:31:24.473Z,9.50
2018-12-23T11:33:53.164Z,9.60
2018-12-23T11:36:21.824Z,9.70
2018-12-23T11:38:50.520Z,9.70
2018-12-23T11:41:19.177Z,9.60
2018-12-23T11:43:47.940Z,9.70
2018-12-23T11:46:16.604Z,9.60
2018-12-23T11:48:45.297Z,9.60
2018-12-23T11:51:13.961Z,9.60
2018-12-23T11:53:42.651Z,9.50
2018-12-23T11:56:11.308Z,9.50
2018-12-23T11:58:40.059Z,9.40
2018-12-23T12:01:08.664Z,9.30
2018-12-23T12:03:37.349Z,9.50
2018-12-23T12:06:06.019Z,9.50
2018-12-23T12:08:34.672Z,9.50
2018-12-23T12:11:03.364Z,9.40
2018-12-23T12:13:32.025Z,9.40
2018-12-23T12:16:00.706Z,9.20
2018-12-23T12:18:29.368Z,9.20
2018-12-23T12:20:58.053Z,9.10
2018-12-23T12:23:26.713Z,9.10
2018-12-23T12:25:55.408Z,9.10
2018-12-23T12:28:24.065Z,9.20
2018-12-23T12:30:52.761Z,9.10
2018-12-23T12:33:21.417Z,9.10
2018-12-23T12:35:50.104Z,9.00
2018-12-23T12:38:18.769Z,9.10
2018-12-23T12:40:47.460Z,9.10
2018-12-23T12:43:16.108Z,9.20
2018-12-23T12:45:44.804Z,9.10
2018-12-23T12:48:13.468Z,9.20
2018-12-23T12:50:42.153Z,9.20
2018-12-23T12:53:10.816Z,9.10
2018-12-23T12:55:39.500Z,9.10
2018-12-23T12:58:08.172Z,9.10
2018-12-23T13:00:36.846Z,9.20
2018-12-23T13:03:05.436Z,9.10
2018-12-23T13:05:34.140Z,9.20
2018-12-23T13:08:02.802Z,9.30
2018-12-23T13:10:31.494Z,9.30
2018-12-23T13:13:00.151Z,9.30
2018-12-23T13:15:28.812Z,9.30
2018-12-23T13:17:57.496Z,9.20
2018-12-23T13:20:26.167Z,9.20
2018-12-23T13:22:54.861Z,9.20
2018-12-23T13:25:23.522Z,9.20
2018-12-23T13:27:52.199Z,9.20
2018-12-23T13:30:20.861Z,9.20
2018-12-23T13:32:49.547Z,9.30
2018-12-23T13:35:18.212Z,9.10
2018-12-23T13:37:46.898Z,9.20
2018-12-23T13:40:18.628Z,9.20
2018-12-23T13:42:53.541Z,9.30
2018-12-23T13:45:53.911Z,9.30
2018-12-23T13:48:37.292Z,9.30
2018-12-23T13:51:14.817Z,9.20
2018-12-23T13:53:58.489Z,9.30
2018-12-23T13:56:49.317Z,9.30
2018-12-23T13:59:38.312Z,9.30
2018-12-23T14:02:38.625Z,9.20
2018-12-23T14:05:10.373Z,9.10
2018-12-23T14:07:42.137Z,9.20
2018-12-23T14:10:19.437Z,9.10
2018-12-23T14:12:48.129Z,9.10
2018-12-23T14:15:16.792Z,9.20
2018-12-23T14:17:45.803Z,9.20
2018-12-23T14:20:15.785Z,9.20
2018-12-23T14:22:44.480Z,9.20
2018-12-23T14:25:13.148Z,9.20
2018-12-23T14:27:41.847Z,9.10
2018-12-23T14:30:10.502Z,9.10
2018-12-23T14:32:39.159Z,9.20
2018-12-23T14:35:07.916Z,9.30
2018-12-23T14:37:36.581Z,9.20
2018-12-23T14:40:06.109Z,9.20
2018-12-23T14:42:34.769Z,9.20
2018-12-23T14:45:03.629Z,9.30
2018-12-23T14:47:32.292Z,9.20
2018-12-23T14:50:00.977Z,9.20
2018-12-23T14:52:29.642Z,9.20
2018-12-23T14:54:58.337Z,9.20
2018-12-23T14:57:27.001Z,9.30
2018-12-23T14:59:55.830Z,9.30
2018-12-23T15:02:24.472Z,9.30
2018-12-23T15:04:53.167Z,9.30
2018-12-23T15:07:21.820Z,9.40
2018-12-23T15:09:50.504Z,9.30
2018-12-23T15:12:19.269Z,9.30
2018-12-23T15:14:47.961Z,9.40
2018-12-23T15:17:16.615Z,9.40
2018-12-23T15:19:45.312Z,9.40
2018-12-23T15:22:14.007Z,9.40
2018-12-23T15:24:42.713Z,9.40
2018-12-23T15:27:11.393Z,9.40
2018-12-23T15:29:40.076Z,9.40
2018-12-23T15:32:08.732Z,9.40
2018-12-23T15:34:37.512Z,9.30
2018-12-23T15:37:06.256Z,9.40
2018-12-23T15:39:42.302Z,9.40
2018-12-23T15:42:05.245Z,9.30
2018-12-23T15:44:33.925Z,9.40
2018-12-23T15:47:02.589Z,9.40
2018-12-23T15:49:31.287Z,9.50
2018-12-23T15:51:59.939Z,9.40
2018-12-23T15:54:28.629Z,9.60
2018-12-23T15:56:57.300Z,9.70
2018-12-23T15:59:25.961Z,9.60
2018-12-23T16:01:54.649Z,9.60
2018-12-23T16:04:23.302Z,9.50
2018-12-23T16:06:51.993Z,9.60
2018-12-23T16:09:20.653Z,9.60
2018-12-23T16:11:49.340Z,9.60
2018-12-23T16:14:18.002Z,9.70
2018-12-23T16:16:46.690Z,9.70
2018-12-23T16:19:15.353Z,9.70
2018-12-23T16:21:44.036Z,9.70
2018-12-23T16:24:12.691Z,9.80
2018-12-23T16:26:41.441Z,9.70
2018-12-23T16:29:10.101Z,9.70
2018-12-23T16:31:38.793Z,9.80
2018-12-23T16:34:07.445Z,9.80
2018-12-23T16:36:36.129Z,9.80
2018-12-23T16:39:06.727Z,9.90
2018-12-23T16:41:35.460Z,10.00
2018-12-23T16:44:04.117Z,10.00
2018-12-23T16:46:32.781Z,10.10
2018-12-23T16:49:01.467Z,10.10
2018-12-23T16:51:30.137Z,10.10
2018-12-23T16:53:58.828Z,10.10
2018-12-23T16:56:27.493Z,10.20
2018-12-23T16:58:56.180Z,10.20
2018-12-23T17:01:24.841Z,10.30
2018-12-23T17:03:53.540Z,10.40
2018-12-23T17:06:22.200Z,10.50
2018-12-23T17:08:50.892Z,10.50
2018-12-23T17:11:19.551Z,10.50
2018-12-23T17:13:48.252Z,10.50
2018-12-23T17:16:16.913Z,10.60
2018-12-23T17:18:45.605Z,10.60
2018-12-23T17:21:14.265Z,10.60
2018-12-23T17:23:42.960Z,10.60
2018-12-23T17:26:11.624Z,10.70
2018-12-23T17:28:40.312Z,10.80
2018-12-23T17:31:08.972Z,10.80
2018-12-23T17:33:37.668Z,10.90
2018-12-23T17:36:06.419Z,10.90
2018-12-23T17:38:35.112Z,10.90
2018-12-23T17:41:03.774Z,11.00
2018-12-23T17:43:32.676Z,10.90
2018-12-23T17:46:01.333Z,11.00
2018-12-23T17:48:30.025Z,10.90
2018-12-23T17:50:58.682Z,11.00
2018-12-23T17:53:27.373Z,11.00
2018-12-23T17:55:56.040Z,11.10
2018-12-23T17:58:24.740Z,11.10
2018-12-23T18:00:53.541Z,11.10
2018-12-23T18:03:22.233Z,11.10
2018-12-23T18:05:50.899Z,11.10
2018-12-23T18:08:19.596Z,11.10
2018-12-23T18:10:48.261Z,11.10
2018-12-23T18:13:16.933Z,11.20
2018-12-23T18:15:45.641Z,11.30
2018-12-23T18:18:14.285Z,11.20
2018-12-23T18:20:42.974Z,11.30
2018-12-23T18:23:11.641Z,11.30
2018-12-23T18:25:40.341Z,11.40
2018-12-23T18:28:09.004Z,11.30
2018-12-23T18:30:37.758Z,11.40
2018-12-23T18:33:06.355Z,11.40
2018-12-23T18:35:35.037Z,11.40
2018-12-23T18:38:03.701Z,11.40
2018-12-23T18:40:33.434Z,11.50
2018-12-23T18:43:02.360Z,11.40
2018-12-23T18:45:31.058Z,11.50
2018-12-23T18:47:59.713Z,11.50
2018-12-23T18:50:28.409Z,11.50
2018-12-23T18:52:57.062Z,11.50
2018-12-23T18:55:27.387Z,11.60
2018-12-23T18:57:56.065Z,11.60
2018-12-23T19:00:24.752Z,11.60
2018-12-23T19:02:53.417Z,11.60
2018-12-23T19:05:22.112Z,11.60
2018-12-23T19:07:50.777Z,11.60
2018-12-23T19:10:22.542Z,11.60
2018-12-23T19:13:09.156Z,11.70
2018-12-23T19:16:01.424Z,11.70
2018-12-23T19:18:33.162Z,11.70
2018-12-23T19:21:07.817Z,11.70
2018-12-23T19:23:45.524Z,11.70
2018-12-23T19:26:50.193Z,11.70
2018-12-23T19:29:24.584Z,11.80
2018-12-23T19:32:07.726Z,11.80
2018-12-23T19:34:57.184Z,11.80
2018-12-23T19:37:49.965Z,11.70
2018-12-23T19:40:37.995Z,11.70
2018-12-23T19:43:28.744Z,11.80
2018-12-23T19:46:28.670Z,11.80
2018-12-23T19:49:18.352Z,11.80
2018-12-23T19:51:55.848Z,11.80
2018-12-23T19:54:33.156Z,11.80
2018-12-23T19:57:16.528Z,11.80
2018-12-23T19:59:48.265Z,11.80
2018-12-23T20:02:52.965Z,11.80
2018-12-23T20:05:39.779Z,11.80
2018-12-23T20:08:27.971Z,11.80
2018-12-23T20:11:29.889Z,11.90
2018-12-23T20:14:18.024Z,11.90
2018-12-23T20:16:54.713Z,11.90
2018-12-23T20:19:32.569Z,11.90
2018-12-23T20:22:25.290Z,11.90
2018-12-23T20:24:59.705Z,11.90
2018-12-23T20:27:43.231Z,11.80
2018-12-23T20:30:14.948Z,11.90
2018-12-23T20:33:04.628Z,12.00
2018-12-23T20:35:51.120Z,12.00
2018-12-23T20:38:36.810Z,12.00
2018-12-23T20:41:38.420Z,12.00
2018-12-23T20:44:26.411Z,12.00
2018-12-23T20:46:58.156Z,12.00
2018-12-23T20:49:44.746Z,12.00
2018-12-23T20:52:48.051Z,12.00
2018-12-23T20:55:19.802Z,12.00
2018-12-23T20:57:51.570Z,12.10
2018-12-23T21:00:48.857Z,12.10
2018-12-23T21:03:36.865Z,12.00
2018-12-23T21:06:17.342Z,12.00
2018-12-23T21:09:05.306Z,12.10
2018-12-23T21:11:45.732Z,12.10
2018-12-23T21:14:48.932Z,12.10
2018-12-23T21:17:35.085Z,12.10
2018-12-23T21:20:09.788Z,12.10
2018-12-23T21:22:56.628Z,12.10
2018-12-23T21:25:44.655Z,12.00
2018-12-23T21:28:25.245Z,12.00
2018-12-23T21:31:02.689Z,12.00
2018-12-23T21:33:58.197Z,12.10
2018-12-23T21:36:35.735Z,12.10
2018-12-23T21:39:19.257Z,12.10
2018-12-23T21:41:56.712Z,12.10
2018-12-23T21:44:31.134Z,12.00
2018-12-23T21:47:08.474Z,12.00
2018-12-23T21:50:14.466Z,12.10
2018-12-23T21:53:10.164Z,12.10
2018-12-23T21:55:57.112Z,12.20
2018-12-23T21:58:31.525Z,12.10
2018-12-23T22:01:03.299Z,12.10
2018-12-23T22:03:53.011Z,12.00
2018-12-23T22:06:27.639Z,12.00
2018-12-23T22:09:27.811Z,12.00
2018-12-23T22:12:05.079Z,12.00
2018-12-23T22:14:33.817Z,12.10
2018-12-23T22:17:02.482Z,12.00
2018-12-23T22:19:31.141Z,12.10
2018-12-23T22:21:59.833Z,12.00
2018-12-23T22:24:28.492Z,12.00
2018-12-23T22:26:57.185Z,12.10
2018-12-23T22:29:25.847Z,12.10
2018-12-23T22:31:54.537Z,12.10
2018-12-23T22:34:23.193Z,12.00
2018-12-23T22:36:51.888Z,12.00
2018-12-23T22:39:20.555Z,12.10
2018-12-23T22:41:49.250Z,12.10
2018-12-23T22:44:17.912Z,12.10
2018-12-23T22:46:46.609Z,12.10
2018-12-23T22:49:15.277Z,12.10
2018-12-23T22:51:43.965Z,12.10
2018-12-23T22:54:12.640Z,12.10
2018-12-23T22:56:41.320Z,12.10
2018-12-23T22:59:09.989Z,12.00
2018-12-23T23:01:40.172Z,12.00
2018-12-23T23:04:08.919Z,12.10
2018-12-23T23:06:37.608Z,12.10
2018-12-23T23:09:07.545Z,12.10
2018-12-23T23:11:36.242Z,12.10
2018-12-23T23:14:04.906Z,12.10
2018-12-23T23:16:33.600Z,12.10
2018-12-23T23:19:02.265Z,12.10
2018-12-23T23:21:30.960Z,12.10
2018-12-23T23:23:59.617Z,12.10
2018-12-23T23:26:28.308Z,12.10
2018-12-23T23:28:56.976Z,12.10
2018-12-23T23:31:25.634Z,12.10
2018-12-23T23:33:54.329Z,12.10
2018-12-23T23:36:22.989Z,12.00
2018-12-23T23:38:51.685Z,12.10
2018-12-23T23:41:20.349Z,12.10
2018-12-23T23:43:49.040Z,12.20
2018-12-23T23:46:17.710Z,12.10
2018-12-23T23:48:46.397Z,12.20
2018-12-23T23:51:15.058Z,12.10
2018-12-23T23:53:43.751Z,12.10
2018-12-23T23:56:12.414Z,12.10
2018-12-23T23:58:41.106Z,12.10
